Time;durP1;ratioP1;P1;durP2;ratioP2;P2;SDS_P1;SDS_P2;PMS_P1;PMS_P2;Temp;Humidity;BMP_temperature;BMP_pressure;BME280_temperature;BME280_humidity;BME280_pressure;Samples;Min_cycle;Max_cycle;Signal;HPM_P1;HPM_P2
2023/04/24 00:00:18;;;;;;;9.07;2.60;;;;;;;18.37;57.12;93591.50;4982272;28;20027;-89
2023/04/24 00:02:46;;;;;;;7.90;2.58;;;;;;;17.94;58.53;93598.97;4982621;28;20030;-90
2023/04/24 00:05:13;;;;;;;5.53;2.30;;;;;;;17.88;59.87;93596.88;4998786;28;20034;-90
2023/04/24 00:07:39;;;;;;;5.78;2.30;;;;;;;18.16;58.58;93582.97;4998195;28;20042;-89
2023/04/24 00:10:06;;;;;;;9.30;2.35;;;;;;;18.41;57.73;93580.22;4998628;28;20041;-90
2023/04/24 00:12:31;;;;;;;6.05;2.15;;;;;;;18.19;58.95;93576.97;4981872;28;20118;-90
2023/04/24 00:14:56;;;;;;;6.25;2.45;;;;;;;18.31;58.69;93579.59;4998053;28;20343;-90
2023/04/24 00:17:22;;;;;;;9.02;2.75;;;;;;;18.22;59.16;93563.06;4998265;28;20041;-89
2023/04/24 00:19:48;;;;;;;6.32;2.00;;;;;;;18.49;58.66;93568.72;4998260;28;20442;-90
2023/04/24 00:22:14;;;;;;;7.38;2.00;;;;;;;18.32;58.46;93567.09;4998029;28;20053;-89
2023/04/24 00:24:40;;;;;;;5.03;2.55;;;;;;;18.45;59.40;93560.66;4998466;28;20026;-90
2023/04/24 00:27:05;;;;;;;6.85;2.30;;;;;;;18.44;57.96;93569.72;4997892;28;20054;-89
2023/04/24 00:29:31;;;;;;;7.75;2.58;;;;;;;17.85;59.41;93568.38;4981928;28;20072;-89
2023/04/24 00:31:56;;;;;;;10.88;3.08;;;;;;;18.10;59.45;93574.47;4998015;28;20038;-90
2023/04/24 00:34:22;;;;;;;6.00;2.67;;;;;;;18.31;58.84;93563.69;4997747;28;20030;-89
2023/04/24 00:36:50;;;;;;;10.80;2.78;;;;;;;18.96;56.61;93561.22;4997771;28;20030;-90
2023/04/24 00:39:15;;;;;;;8.60;2.78;;;;;;;18.20;57.39;93558.06;4981622;28;20325;-89
2023/04/24 00:41:41;;;;;;;12.50;2.60;;;;;;;18.76;56.37;93548.59;4982020;28;20060;-90
2023/04/24 00:44:07;;;;;;;9.45;2.80;;;;;;;18.30;57.38;93556.84;4997638;28;20026;-89
2023/04/24 00:46:32;;;;;;;7.88;2.67;;;;;;;17.87;58.18;93542.34;4981862;28;20358;-90
2023/04/24 00:48:58;;;;;;;7.40;2.17;;;;;;;18.19;58.97;93537.97;4997502;28;20026;-89
2023/04/24 00:51:24;;;;;;;6.32;2.50;;;;;;;18.58;57.70;93529.56;4997627;28;20116;-89
2023/04/24 00:53:50;;;;;;;7.95;2.47;;;;;;;18.32;57.74;93525.47;4997703;28;20055;-89
2023/04/24 00:56:16;;;;;;;10.60;3.00;;;;;;;18.23;59.01;93527.47;4997703;28;20026;-89
2023/04/24 00:58:42;;;;;;;5.13;2.42;;;;;;;18.90;56.61;93534.16;4997166;28;20034;-89
2023/04/24 01:01:09;;;;;;;8.75;2.65;;;;;;;17.82;61.36;93530.09;4997978;28;20065;-90
2023/04/24 01:03:36;;;;;;;7.03;2.60;;;;;;;18.41;59.68;93522.69;4997190;28;20132;-90
2023/04/24 01:06:02;;;;;;;7.72;2.40;;;;;;;19.03;57.71;93521.63;4997255;28;20121;-90
2023/04/24 01:08:28;;;;;;;6.28;2.70;;;;;;;18.97;56.94;93521.09;4997089;28;20428;-89
2023/04/24 01:10:54;;;;;;;11.57;2.78;;;;;;;18.65;59.21;93521.03;4997372;28;20033;-89
2023/04/24 01:13:20;;;;;;;12.90;2.85;;;;;;;18.89;59.45;93520.13;4997351;28;20030;-90
2023/04/24 01:15:46;;;;;;;14.43;2.90;;;;;;;18.88;60.32;93502.66;4997008;28;20061;-90
2023/04/24 01:18:12;;;;;;;11.70;2.83;;;;;;;18.54;59.97;93488.16;4980821;28;20038;-89
2023/04/24 01:20:42;;;;;;;7.55;2.78;;;;;;;18.60;60.43;93484.91;4997309;28;20053;-90
2023/04/24 01:23:08;;;;;;;11.23;2.50;;;;;;;18.54;59.56;93488.16;4997152;28;20164;-90
2023/04/24 01:25:33;;;;;;;9.00;2.58;;;;;;;18.27;60.02;93482.50;4996870;28;20447;-89
2023/04/24 01:27:59;;;;;;;14.55;2.80;;;;;;;18.51;59.65;93489.59;4998120;28;20381;-89
2023/04/24 01:30:26;;;;;;;13.45;2.85;;;;;;;18.48;59.54;93495.56;4997104;28;20424;-90
2023/04/24 01:32:52;;;;;;;12.10;2.55;;;;;;;18.50;60.31;93488.03;4996903;28;20034;-90
2023/04/24 01:35:18;;;;;;;9.75;2.47;;;;;;;18.96;57.44;93478.94;4997596;28;20030;-91
2023/04/24 01:37:44;;;;;;;14.73;2.70;;;;;;;18.42;60.22;93479.13;4980761;28;20037;-90
2023/04/24 01:40:10;;;;;;;8.60;2.47;;;;;;;19.14;57.43;93490.03;4996920;28;20033;-91
2023/04/24 01:42:35;;;;;;;12.48;2.55;;;;;;;19.02;58.48;93470.41;5013272;28;20128;-91
2023/04/24 01:45:03;;;;;;;11.07;2.85;;;;;;;18.88;59.77;93464.72;4996814;28;20129;-90
2023/04/24 01:47:29;;;;;;;5.75;2.15;;;;;;;19.10;58.55;93486.53;4996859;28;20026;-91
2023/04/24 01:49:55;;;;;;;6.05;1.80;;;;;;;19.12;57.99;93492.25;4996594;28;20431;-91
2023/04/24 01:52:21;;;;;;;7.32;2.15;;;;;;;18.96;59.37;93482.38;4996059;28;20032;-91
2023/04/24 01:54:46;;;;;;;6.35;2.00;;;;;;;18.89;58.94;93467.06;4996436;28;20054;-91
2023/04/24 01:57:13;;;;;;;5.05;2.05;;;;;;;19.16;58.29;93469.22;4996523;28;20470;-91
2023/04/24 01:59:39;;;;;;;4.72;2.00;;;;;;;18.65;61.33;93462.69;4996429;28;20057;-90
2023/04/24 02:02:04;;;;;;;6.05;1.80;;;;;;;18.89;60.06;93471.59;4996415;28;20053;-90
2023/04/24 02:04:30;;;;;;;3.17;1.70;;;;;;;18.92;60.92;93482.28;4996651;28;20018;-90
2023/04/24 02:06:59;;;;;;;4.93;2.08;;;;;;;18.73;62.08;93480.28;4996627;28;20030;-90
2023/04/24 02:09:25;;;;;;;3.78;1.83;;;;;;;19.00;59.73;93482.47;4996374;28;20034;-90
2023/04/24 02:11:50;;;;;;;2.92;1.60;;;;;;;19.12;58.75;93484.28;4996242;28;20057;-90
2023/04/24 02:14:16;;;;;;;6.50;2.13;;;;;;;18.86;61.31;93477.56;4996306;28;20061;-91
2023/04/24 02:16:41;;;;;;;5.80;1.77;;;;;;;18.46;62.81;93465.97;4996243;28;20041;-91
2023/04/24 02:19:07;;;;;;;5.80;1.52;;;;;;;18.92;60.45;93471.69;4980178;28;20034;-91
2023/04/24 02:21:32;;;;;;;6.97;2.05;;;;;;;19.00;60.23;93477.97;4979927;28;20121;-91
2023/04/24 02:23:58;;;;;;;6.07;1.90;;;;;;;18.88;60.00;93485.97;4996434;28;20033;-91
2023/04/24 02:26:23;;;;;;;5.45;1.80;;;;;;;18.75;62.42;93469.34;4980420;28;20034;-91
2023/04/24 02:28:48;;;;;;;2.85;1.60;;;;;;;18.98;62.18;93474.06;4996214;28;20100;-90
2023/04/24 02:31:14;;;;;;;9.18;1.98;;;;;;;18.61;63.03;93478.50;4980057;28;20034;-90
2023/04/24 02:33:40;;;;;;;6.53;2.10;;;;;;;18.29;66.23;93462.53;4995966;28;20038;-90
2023/04/24 02:36:08;;;;;;;9.70;2.42;;;;;;;18.49;72.61;93468.69;4995951;28;20454;-90
2023/04/24 02:38:33;;;;;;;3.95;1.65;;;;;;;18.03;71.38;93484.13;4980355;28;20456;-91
2023/04/24 02:41:00;;;;;;;6.57;1.75;;;;;;;18.75;68.04;93479.97;4994640;28;20038;-91
2023/04/24 02:43:26;;;;;;;5.60;1.70;;;;;;;18.22;71.94;93494.91;4995097;28;20031;-90
2023/04/24 02:45:51;;;;;;;10.88;2.05;;;;;;;18.27;74.65;93470.00;4988871;28;20494;-90
2023/04/24 02:48:17;;;;;;;14.73;2.58;;;;;;;17.58;92.54;93448.78;4999260;28;20056;-90
2023/04/24 02:50:42;;;;;;;6.80;2.30;;;;;;;17.88;90.18;93459.84;5015599;28;20033;-90
2023/04/24 02:53:08;;;;;;;5.90;2.63;;;;;;;17.76;97.51;93451.94;5015717;28;20037;-91
2023/04/24 02:55:33;;;;;;;8.73;2.10;;;;;;;18.03;90.46;93442.50;4999413;28;20088;-90
2023/04/24 02:57:59;;;;;;;6.63;2.55;;;;;;;18.15;86.64;93451.53;5015461;28;20116;-90
2023/04/24 03:00:25;;;;;;;6.07;2.60;;;;;;;17.97;82.21;93443.06;4999459;28;20033;-91
2023/04/24 03:02:50;;;;;;;7.80;2.58;;;;;;;17.90;82.54;93438.31;5000364;28;20030;-91
2023/04/24 03:05:16;;;;;;;5.47;2.25;;;;;;;17.83;83.75;93438.13;5002961;28;20417;-91
2023/04/24 03:07:41;;;;;;;6.85;2.03;;;;;;;17.71;84.17;93442.34;4996786;28;20073;-90
2023/04/24 03:10:07;;;;;;;7.22;1.90;;;;;;;17.94;83.58;93434.69;4983251;28;20403;-90
2023/04/24 03:12:34;;;;;;;4.82;1.90;;;;;;;17.51;83.32;93425.50;4999794;28;20038;-91
2023/04/24 03:15:00;;;;;;;7.57;1.35;;;;;;;17.72;80.38;93422.72;4999447;28;20041;-91
2023/04/24 03:17:25;;;;;;;7.22;1.48;;;;;;;18.02;77.63;93419.78;4983099;28;20038;-91
2023/04/24 03:19:51;;;;;;;8.07;1.65;;;;;;;17.26;84.32;93430.06;4999408;28;20116;-90
2023/04/24 03:22:16;;;;;;;4.97;1.67;;;;;;;16.90;90.48;93448.22;4999585;28;20041;-91
2023/04/24 03:24:42;;;;;;;7.25;1.90;;;;;;;16.84;88.07;93444.25;4983185;28;20092;-90
2023/04/24 03:27:07;;;;;;;6.68;2.25;;;;;;;16.53;91.16;93425.91;4983164;28;20037;-90
2023/04/24 03:29:32;;;;;;;5.70;1.55;;;;;;;17.10;86.37;93434.16;4983162;28;20061;-91
2023/04/24 03:31:58;;;;;;;11.00;1.92;;;;;;;17.18;85.21;93423.78;4983000;28;20037;-91
2023/04/24 03:34:23;;;;;;;10.98;1.90;;;;;;;17.24;80.22;93404.69;4998932;28;20034;-89
2023/04/24 03:37:15;;;;;;;12.88;2.42;;;;;;;17.75;77.54;93397.41;4999258;28;20038;-90
2023/04/24 03:39:40;;;;;;;8.00;2.05;;;;;;;16.61;83.27;93402.34;4998983;28;20116;-90
2023/04/24 03:42:06;;;;;;;9.48;1.92;;;;;;;17.25;75.78;93418.69;4998834;28;20116;-90
2023/04/24 03:44:31;;;;;;;5.85;1.67;;;;;;;17.03;70.43;93423.34;4998842;28;20034;-90
2023/04/24 03:47:05;;;;;;;8.00;1.73;;;;;;;17.23;75.30;93426.97;4998677;28;20347;-90
2023/04/24 03:49:30;;;;;;;6.38;1.60;;;;;;;17.65;72.02;93438.38;4982643;28;20037;-91
2023/04/24 03:51:56;;;;;;;9.05;1.75;;;;;;;16.17;84.13;93435.28;4982953;28;20348;-90
2023/04/24 03:54:21;;;;;;;5.88;1.55;;;;;;;16.39;84.06;93433.38;4982469;28;20038;-90
2023/04/24 03:56:47;;;;;;;10.30;1.60;;;;;;;16.76;76.41;93449.28;4982614;28;20117;-89
2023/04/24 03:59:13;;;;;;;5.35;1.70;;;;;;;16.50;77.30;93449.59;4999857;28;20344;-90
2023/04/24 04:01:39;;;;;;;6.78;1.67;;;;;;;16.30;80.22;93435.31;4998475;28;20037;-89
2023/04/24 04:04:08;;;;;;;4.15;1.75;;;;;;;16.14;79.84;93435.16;4982930;28;20060;-90
2023/04/24 04:06:34;;;;;;;8.48;1.70;;;;;;;16.15;81.54;93444.66;4982390;28;20037;-90
2023/04/24 04:09:00;;;;;;;4.78;2.08;;;;;;;17.06;71.23;93451.00;4998290;28;20117;-91
2023/04/24 04:11:26;;;;;;;6.55;1.65;;;;;;;16.75;73.45;93447.75;4998314;28;20030;-91
2023/04/24 04:13:53;;;;;;;7.68;1.50;;;;;;;16.16;77.39;93431.09;4982104;28;20510;-90
2023/04/24 04:16:18;;;;;;;6.55;1.77;;;;;;;16.04;77.23;93434.47;4997931;28;20348;-90
2023/04/24 04:18:44;;;;;;;5.15;1.55;;;;;;;15.96;76.65;93427.38;4982069;28;20045;-89
2023/04/24 04:21:10;;;;;;;2.70;1.10;;;;;;;16.11;74.65;93439.22;4982379;28;20073;-90
2023/04/24 04:23:35;;;;;;;2.70;1.13;;;;;;;16.04;74.70;93431.03;4982009;28;20390;-90
2023/04/24 04:26:02;;;;;;;4.10;1.33;;;;;;;16.28;72.46;93443.56;4981987;28;20034;-91
2023/04/24 04:28:27;;;;;;;4.72;1.30;;;;;;;16.20;68.83;93460.28;4981833;28;20133;-90
2023/04/24 04:30:57;;;;;;;5.20;1.17;;;;;;;16.13;70.28;93452.88;4981963;28;20463;-90
2023/04/24 04:33:23;;;;;;;3.83;1.30;;;;;;;16.00;71.59;93425.66;4982349;28;20069;-90
2023/04/24 04:35:49;;;;;;;2.75;1.27;;;;;;;15.74;75.52;93429.25;4981890;28;20085;-91
2023/04/24 04:38:16;;;;;;;2.83;0.90;;;;;;;16.62;70.48;93459.41;4982096;28;20034;-90
2023/04/24 04:40:42;;;;;;;3.65;1.10;;;;;;;16.27;72.68;93447.31;4981850;28;20037;-90
2023/04/24 04:43:08;;;;;;;3.33;1.10;;;;;;;15.89;75.53;93454.31;4981684;28;20335;-90
2023/04/24 04:45:34;;;;;;;5.40;1.00;;;;;;;15.81;74.83;93455.91;4998057;28;20022;-89
2023/04/24 04:48:01;;;;;;;3.42;1.13;;;;;;;15.97;74.71;93465.91;4997885;28;20031;-90
2023/04/24 04:50:27;;;;;;;5.20;1.20;;;;;;;15.99;72.29;93468.22;4981756;28;20022;-90
2023/04/24 04:52:52;;;;;;;2.60;0.90;;;;;;;16.55;67.59;93473.16;4981423;28;20026;-90
2023/04/24 04:55:19;;;;;;;3.83;1.23;;;;;;;16.45;67.97;93466.41;4981514;28;20030;-90
2023/04/24 04:57:45;;;;;;;1.17;0.80;;;;;;;16.51;67.34;93461.69;4997299;28;20038;-90
2023/04/24 05:00:11;;;;;;;2.38;0.93;;;;;;;17.10;64.05;93475.72;4997411;28;20041;-91
2023/04/24 05:02:37;;;;;;;2.28;0.98;;;;;;;17.09;65.04;93477.59;4981321;28;20062;-88
2023/04/24 05:05:03;;;;;;;2.13;0.80;;;;;;;17.00;65.52;93463.69;4993184;28;20022;-87
2023/04/24 05:07:29;;;;;;;2.88;1.23;;;;;;;17.27;63.76;93466.78;5011285;28;20034;-87
2023/04/24 05:09:54;;;;;;;6.45;1.13;;;;;;;17.06;63.08;93470.28;5016845;28;20026;-87
2023/04/24 05:12:19;;;;;;;4.93;1.40;;;;;;;17.14;66.51;93481.88;5016954;28;20025;-88
2023/04/24 05:14:45;;;;;;;3.20;1.15;;;;;;;17.50;66.37;93487.50;5016806;28;20033;-88
2023/04/24 05:17:11;;;;;;;2.97;1.30;;;;;;;17.01;63.60;93486.41;5016576;28;20100;-88
2023/04/24 05:19:38;;;;;;;4.82;0.95;;;;;;;17.63;60.84;93485.63;5017832;28;20025;-87
2023/04/24 05:22:06;;;;;;;5.18;1.20;;;;;;;17.60;61.32;93486.28;5000822;28;20026;-89
2023/04/24 05:24:32;;;;;;;4.35;1.00;;;;;;;17.78;60.24;93484.16;5001218;28;20030;-88
2023/04/24 05:26:58;;;;;;;3.92;0.90;;;;;;;17.87;64.36;93492.75;5016901;28;20061;-89
2023/04/24 05:29:25;;;;;;;7.55;1.42;;;;;;;17.71;65.74;93487.38;5016424;28;20424;-88
2023/04/24 05:31:50;;;;;;;2.05;1.10;;;;;;;18.12;63.78;93474.16;5016654;28;20117;-89
2023/04/24 05:34:16;;;;;;;4.78;1.23;;;;;;;17.25;66.16;93479.59;5017615;28;20435;-88
2023/04/24 05:36:42;;;;;;;4.07;1.08;;;;;;;18.06;66.93;93480.81;5000499;28;20141;-89
2023/04/24 05:39:08;;;;;;;8.57;1.55;;;;;;;18.06;69.67;93473.63;5017519;28;20053;-89
2023/04/24 05:41:34;;;;;;;5.82;1.40;;;;;;;17.69;64.88;93472.94;5000298;28;20415;-88
2023/04/24 05:43:59;;;;;;;3.20;1.00;;;;;;;17.42;62.93;93483.88;5016733;28;20029;-87
2023/04/24 05:46:25;;;;;;;7.60;1.13;;;;;;;17.29;66.18;93469.88;5016364;28;20030;-87
2023/04/24 05:48:50;;;;;;;5.65;1.15;;;;;;;16.89;68.11;93478.41;5016221;28;20025;-88
2023/04/24 05:51:16;;;;;;;7.80;1.10;;;;;;;17.66;65.92;93484.94;5000073;28;20059;-89
2023/04/24 05:53:41;;;;;;;4.97;1.02;;;;;;;17.61;65.48;93487.84;5000094;28;20064;-87
2023/04/24 05:56:06;;;;;;;3.20;1.27;;;;;;;17.72;63.55;93494.22;5000083;28;20029;-87
2023/04/24 05:58:32;;;;;;;3.95;1.25;;;;;;;17.43;70.55;93496.03;4999899;28;20033;-88
2023/04/24 06:00:58;;;;;;;3.47;1.20;;;;;;;17.47;69.21;93490.81;5000065;28;20026;-87
2023/04/24 06:03:24;;;;;;;2.33;1.20;;;;;;;17.28;72.53;93486.06;5015879;28;20026;-87
2023/04/24 06:05:53;;;;;;;7.53;2.65;;;;;;;17.27;73.46;93477.38;5016064;28;20033;-86
2023/04/24 06:08:19;;;;;;;5.35;1.48;;;;;;;17.73;70.70;93473.78;4999557;28;20120;-88
2023/04/24 06:10:45;;;;;;;6.10;1.45;;;;;;;17.07;71.97;93474.50;5016254;28;20112;-87
2023/04/24 06:13:11;;;;;;;3.00;1.17;;;;;;;16.60;78.54;93480.91;5015844;28;20042;-87
2023/04/24 06:15:36;;;;;;;4.60;0.95;;;;;;;17.47;73.40;93483.66;5015983;28;20415;-87
2023/04/24 06:18:02;;;;;;;4.13;1.20;;;;;;;17.97;68.40;93482.81;4999583;28;20038;-88
2023/04/24 06:20:28;;;;;;;2.20;0.95;;;;;;;18.14;73.46;93493.16;5017152;28;20339;-88
2023/04/24 06:22:53;;;;;;;5.95;1.05;;;;;;;18.17;77.62;93476.56;4999752;28;20030;-88
2023/04/24 06:25:19;;;;;;;5.32;1.33;;;;;;;18.50;75.40;93469.47;5015916;28;20113;-88
2023/04/24 06:27:44;;;;;;;3.47;1.02;;;;;;;18.70;74.63;93477.53;5017039;28;20080;-88
2023/04/24 06:30:10;;;;;;;4.38;1.20;;;;;;;18.97;72.59;93470.66;5003910;28;20042;-87
2023/04/24 06:32:36;;;;;;;4.25;1.40;;;;;;;19.09;69.16;93471.72;4995307;28;20044;-88
2023/04/24 06:35:01;;;;;;;6.63;1.33;;;;;;;19.40;70.00;93462.19;5015724;28;20033;-88
2023/04/24 06:37:27;;;;;;;5.10;1.50;;;;;;;19.76;68.00;93462.94;5016537;28;20057;-88
2023/04/24 06:39:52;;;;;;;2.53;1.17;;;;;;;19.21;63.98;93458.31;5019709;28;20029;-88
2023/04/24 06:42:20;;;;;;;2.90;1.13;;;;;;;19.72;65.09;93444.25;5019733;28;20394;-88
2023/04/24 06:44:46;;;;;;;1.77;1.10;;;;;;;19.74;68.62;93452.66;5020711;28;20025;-88
2023/04/24 06:47:13;;;;;;;1.58;1.17;;;;;;;19.11;67.14;93442.94;5019446;28;20116;-90
2023/04/24 06:49:39;;;;;;;2.90;1.20;;;;;;;19.34;66.92;93459.78;5019248;28;20076;-90
2023/04/24 06:52:05;;;;;;;4.45;1.23;;;;;;;18.62;70.71;93442.13;5003071;28;20351;-90
2023/04/24 06:54:31;;;;;;;2.33;1.20;;;;;;;18.88;66.93;93444.28;5019207;28;20038;-89
2023/04/24 06:56:57;;;;;;;4.63;1.20;;;;;;;18.84;66.31;93442.66;4998106;28;20034;-89
2023/04/24 06:59:26;;;;;;;6.05;1.08;;;;;;;19.35;69.28;93452.59;5000005;28;20432;-89
2023/04/24 07:01:51;;;;;;;4.88;1.13;;;;;;;19.27;66.13;93443.69;4999770;28;20038;-89
2023/04/24 07:04:17;;;;;;;3.65;1.02;;;;;;;19.39;65.46;93457.97;4983618;28;20022;-89
2023/04/24 07:06:45;;;;;;;3.40;1.00;;;;;;;19.64;68.45;93453.22;4999727;28;20125;-88
2023/04/24 07:09:11;;;;;;;6.03;1.00;;;;;;;19.59;63.22;93456.16;4983303;28;20034;-89
2023/04/24 07:11:38;;;;;;;3.15;1.13;;;;;;;19.75;60.96;93451.56;4999585;28;20446;-89
2023/04/24 07:14:03;;;;;;;2.53;1.00;;;;;;;19.99;59.90;93449.00;4999510;28;20034;-88
2023/04/24 07:16:30;;;;;;;2.22;0.85;;;;;;;20.06;58.89;93441.16;4983390;28;20057;-88
2023/04/24 07:18:55;;;;;;;5.18;1.38;;;;;;;19.67;59.79;93447.19;4983414;28;20404;-89
2023/04/24 07:21:20;;;;;;;5.43;0.90;;;;;;;19.58;57.82;93457.22;4999454;28;20026;-88
2023/04/24 07:23:46;;;;;;;3.20;0.88;;;;;;;19.36;58.85;93457.53;4999506;28;20033;-88
2023/04/24 07:26:11;;;;;;;2.97;1.05;;;;;;;19.55;56.45;93455.28;4999405;28;20030;-88
2023/04/24 07:28:36;;;;;;;7.30;0.90;;;;;;;19.78;58.85;93460.69;4999056;28;20034;-89
2023/04/24 07:31:02;;;;;;;2.65;1.15;;;;;;;19.20;56.79;93454.91;4999464;28;20030;-88
2023/04/24 07:33:27;;;;;;;5.30;1.17;;;;;;;19.74;58.23;93451.88;4999183;28;20062;-89
2023/04/24 07:35:53;;;;;;;3.40;0.80;;;;;;;20.15;56.64;93463.00;5016108;28;20316;-89
2023/04/24 07:38:22;;;;;;;5.80;1.52;;;;;;;19.52;56.88;93471.91;5002144;28;20108;-89
2023/04/24 07:40:48;;;;;;;1.95;0.95;;;;;;;21.50;51.36;93470.59;4997772;28;20030;-88
2023/04/24 07:43:13;;;;;;;4.20;0.95;;;;;;;21.93;49.00;93470.44;5015321;28;20019;-89
2023/04/24 07:45:39;;;;;;;4.05;1.02;;;;;;;22.05;48.80;93470.22;4982733;28;20026;-89
2023/04/24 07:48:05;;;;;;;4.30;0.93;;;;;;;22.27;49.74;93468.56;4982563;28;20026;-89
2023/04/24 07:50:30;;;;;;;2.17;0.63;;;;;;;20.82;56.81;93471.84;4981370;28;20074;-89
2023/04/24 07:52:56;;;;;;;4.88;0.95;;;;;;;20.08;47.04;93470.81;4998755;28;20495;-88
2023/04/24 07:55:22;;;;;;;4.63;0.90;;;;;;;20.86;45.30;93463.91;4998784;28;20317;-88
2023/04/24 07:57:47;;;;;;;7.25;1.27;;;;;;;21.23;49.17;93468.72;4998225;28;20022;-88
2023/04/24 08:00:13;;;;;;;5.53;1.30;;;;;;;21.93;47.41;93475.78;4998690;28;20034;-88
2023/04/24 08:02:39;;;;;;;7.80;0.90;;;;;;;22.26;41.68;93475.03;4998919;28;20038;-89
2023/04/24 08:05:07;;;;;;;5.82;0.95;;;;;;;22.78;42.38;93463.78;4998669;28;20486;-89
2023/04/24 08:07:32;;;;;;;3.85;0.75;;;;;;;20.89;42.74;93466.66;4982611;28;20034;-88
2023/04/24 08:09:59;;;;;;;5.30;1.15;;;;;;;21.97;41.07;93468.59;4995384;28;20033;-89
2023/04/24 08:12:24;;;;;;;4.68;0.80;;;;;;;20.58;42.81;93462.28;5018108;28;20021;-89
2023/04/24 08:14:50;;;;;;;6.18;1.20;;;;;;;20.58;43.54;93457.69;5001756;28;20442;-89
2023/04/24 08:17:16;;;;;;;6.10;0.80;;;;;;;20.89;43.68;93463.97;5001474;28;20030;-89
2023/04/24 08:19:47;;;;;;;5.72;1.55;;;;;;;20.20;47.41;93460.06;4997951;28;20030;-89
2023/04/24 08:22:12;;;;;;;5.03;0.90;;;;;;;19.56;44.88;93467.44;4983008;28;20030;-90
2023/04/24 08:24:38;;;;;;;6.38;0.95;;;;;;;20.58;45.03;93467.59;4982313;28;20045;-89
2023/04/24 08:27:03;;;;;;;5.32;1.20;;;;;;;21.27;46.24;93477.50;4982006;28;20056;-88
2023/04/24 08:29:29;;;;;;;2.97;0.95;;;;;;;21.54;44.98;93476.75;4997676;28;20464;-89
2023/04/24 08:31:54;;;;;;;8.20;1.42;;;;;;;22.06;48.35;93469.09;4998137;28;20026;-89
2023/04/24 08:34:21;;;;;;;4.90;1.10;;;;;;;21.58;46.17;93482.88;4998061;28;20317;-89
2023/04/24 08:36:46;;;;;;;6.90;1.30;;;;;;;21.21;45.46;93489.56;4997989;28;20466;-89
2023/04/24 08:39:11;;;;;;;4.50;1.23;;;;;;;21.02;43.96;93493.09;4981638;28;20034;-89
2023/04/24 08:41:37;;;;;;;9.98;1.30;;;;;;;21.29;44.28;93493.13;4982238;28;20026;-90
2023/04/24 08:44:03;;;;;;;10.48;1.20;;;;;;;21.74;49.10;93498.75;4981653;28;20026;-88
2023/04/24 08:46:30;;;;;;;4.28;1.10;;;;;;;22.19;45.70;93488.31;4997720;28;20030;-90
2023/04/24 08:48:56;;;;;;;7.53;1.40;;;;;;;22.59;47.30;93499.44;4981332;28;20109;-88
2023/04/24 08:51:22;;;;;;;5.63;1.10;;;;;;;22.41;44.74;93492.00;4975137;28;20038;-89
2023/04/24 08:53:48;;;;;;;5.72;1.17;;;;;;;21.00;45.24;93498.75;5011701;28;20439;-89
2023/04/24 08:56:14;;;;;;;6.82;1.15;;;;;;;21.99;46.18;93501.00;4998103;28;20037;-89
2023/04/24 08:58:39;;;;;;;2.70;0.77;;;;;;;22.48;43.90;93498.56;5007544;28;20522;-90
2023/04/24 09:01:05;;;;;;;5.43;1.15;;;;;;;22.44;44.33;93503.81;5016724;28;20462;-90
2023/04/24 09:03:31;;;;;;;5.25;1.20;;;;;;;22.61;42.82;93509.78;5016686;28;20026;-90
2023/04/24 09:05:57;;;;;;;6.30;1.23;;;;;;;22.12;44.96;93513.00;5000691;28;20112;-90
2023/04/24 09:08:25;;;;;;;3.13;1.08;;;;;;;22.26;42.68;93514.31;4997652;28;20064;-91
2023/04/24 09:10:51;;;;;;;5.93;0.77;;;;;;;22.43;44.14;93519.06;4996910;28;20451;-90
2023/04/24 09:13:16;;;;;;;3.80;1.08;;;;;;;22.68;45.06;93512.50;4996939;28;20030;-90
2023/04/24 09:15:42;;;;;;;4.10;1.55;;;;;;;22.74;48.81;93517.16;4996977;28;20038;-90
2023/04/24 09:18:07;;;;;;;11.05;4.60;;;;;;;23.43;52.42;93519.72;4996402;28;20038;-90
2023/04/24 09:20:35;;;;;;;4.70;2.30;;;;;;;23.28;48.49;93519.59;4981005;28;20037;-90
2023/04/24 09:23:00;;;;;;;9.27;4.28;;;;;;;24.13;56.29;93529.72;4981075;28;20463;-90
2023/04/24 09:25:33;;;;;;;16.20;6.32;;;;;;;24.32;50.71;93520.66;4996550;28;20034;-89
2023/04/24 09:28:03;;;;;;;16.13;7.45;;;;;;;24.09;51.39;93526.28;4996919;28;20117;-88
2023/04/24 09:30:29;;;;;;;21.48;10.45;;;;;;;22.26;54.78;93539.06;4997034;28;20030;-90
2023/04/24 09:33:14;;;;;;;18.80;8.45;;;;;;;22.72;54.07;93543.44;4997800;28;20040;-90
2023/04/24 09:35:50;;;;;;;12.77;6.88;;;;;;;23.46;55.24;93540.34;4996696;28;20022;-90
2023/04/24 09:38:16;;;;;;;15.82;8.00;;;;;;;21.49;56.07;93544.44;4980238;28;20034;-90
2023/04/24 09:40:41;;;;;;;15.80;7.95;;;;;;;22.23;54.98;93552.34;4997717;28;20030;-91
2023/04/24 09:43:10;;;;;;;16.77;7.18;;;;;;;22.61;57.45;93560.50;4996600;28;20052;-90
2023/04/24 09:45:38;;;;;;;15.02;7.05;;;;;;;22.80;55.94;93567.53;4980551;28;20043;-89
2023/04/24 09:48:06;;;;;;;20.40;9.50;;;;;;;22.04;56.64;93556.69;4996410;28;20037;-90
2023/04/24 09:50:32;;;;;;;14.20;8.88;;;;;;;22.34;58.15;93552.50;4996715;28;20109;-90
2023/04/24 09:52:59;;;;;;;15.07;8.93;;;;;;;22.41;56.35;93547.25;4997134;28;20121;-90
2023/04/24 09:55:25;;;;;;;22.17;10.13;;;;;;;22.16;60.35;93550.38;4992702;28;20026;-89
2023/04/24 09:57:56;;;;;;;17.08;10.18;;;;;;;22.01;58.07;93541.41;4996197;28;20076;-89
2023/04/24 10:00:29;;;;;;;17.67;11.05;;;;;;;21.83;59.75;93547.28;4996596;28;20339;-89
2023/04/24 10:03:04;;;;;;;21.73;9.63;;;;;;;23.05;58.55;93548.34;4996488;28;20026;-90
2023/04/24 10:05:32;;;;;;;17.52;9.95;;;;;;;23.39;57.66;93551.00;4996331;28;20101;-89
2023/04/24 10:08:10;;;;;;;17.15;10.80;;;;;;;23.54;55.29;93541.94;4996317;28;20038;-90
2023/04/24 10:10:40;;;;;;;21.95;10.30;;;;;;;24.16;59.62;93541.59;4996121;28;20029;-89
2023/04/24 10:13:06;;;;;;;19.52;13.35;;;;;;;22.91;56.05;93540.97;4995803;28;20050;-89
2023/04/24 10:15:32;;;;;;;19.92;12.30;;;;;;;22.53;56.93;93540.97;4996432;28;20026;-88
2023/04/24 10:17:58;;;;;;;21.85;12.70;;;;;;;22.63;57.52;93558.97;4979854;28;20056;-89
2023/04/24 10:20:27;;;;;;;20.00;13.25;;;;;;;23.02;56.87;93555.97;4996555;28;20033;-89
2023/04/24 10:22:53;;;;;;;18.65;11.05;;;;;;;24.01;56.08;93547.59;4996366;28;20116;-89
2023/04/24 10:25:25;;;;;;;13.85;8.63;;;;;;;24.38;54.75;93547.81;4976884;28;20117;-89
2023/04/24 10:27:51;;;;;;;15.00;9.35;;;;;;;24.20;51.75;93555.75;4995858;28;20029;-90
2023/04/24 10:30:18;;;;;;;13.50;9.00;;;;;;;24.48;53.26;93555.13;4979961;28;20050;-89
2023/04/24 10:32:44;;;;;;;14.93;9.93;;;;;;;24.48;51.98;93554.34;4996266;28;20031;-89
2023/04/24 10:35:12;;;;;;;14.15;8.93;;;;;;;23.22;52.87;93555.00;4996387;28;20034;-90
2023/04/24 10:37:45;;;;;;;18.50;9.75;;;;;;;22.79;56.15;93558.00;4996240;28;20053;-90
2023/04/24 10:40:11;;;;;;;13.23;7.90;;;;;;;23.42;56.84;93552.91;4995893;28;20105;-89
2023/04/24 10:42:43;;;;;;;10.48;6.05;;;;;;;23.92;54.33;93554.41;4996131;28;20027;-88
2023/04/24 10:45:22;;;;;;;18.73;7.22;;;;;;;23.80;53.72;93561.59;4996713;28;20019;-88
2023/04/24 10:47:59;;;;;;;10.80;6.00;;;;;;;23.12;53.29;93562.53;4995660;28;20026;-89
2023/04/24 10:50:26;;;;;;;14.05;7.10;;;;;;;22.43;55.87;93561.78;4996470;28;20023;-89
2023/04/24 10:52:54;;;;;;;8.32;5.10;;;;;;;23.28;53.68;93553.56;4996095;28;20169;-88
2023/04/24 10:55:43;;;;;;;8.38;4.10;;;;;;;23.94;50.37;93555.59;4994775;28;20049;-89
2023/04/24 10:58:08;;;;;;;9.00;4.07;;;;;;;23.67;51.40;93563.03;5014994;28;20056;-89
2023/04/24 11:00:36;;;;;;;7.35;3.78;;;;;;;24.30;51.52;93560.41;5015605;28;20455;-88
2023/04/24 11:03:04;;;;;;;7.78;3.42;;;;;;;23.61;50.49;93551.16;5014826;28;20432;-89
2023/04/24 11:05:52;;;;;;;7.35;3.35;;;;;;;24.43;49.98;93556.25;4995879;28;20029;-87
2023/04/24 11:08:28;;;;;;;5.68;3.15;;;;;;;24.56;49.17;93561.28;4996683;28;20034;-88
2023/04/24 11:11:13;;;;;;;7.72;3.05;;;;;;;24.74;49.72;93561.34;4979866;28;20029;-88
2023/04/24 11:13:54;;;;;;;9.07;2.80;;;;;;;24.73;48.26;93557.13;4979931;28;20034;-88
2023/04/24 11:16:33;;;;;;;8.57;2.80;;;;;;;24.41;49.08;93552.41;4995956;28;20053;-89
2023/04/24 11:19:15;;;;;;;8.00;2.92;;;;;;;24.81;45.16;93549.91;4996112;28;20032;-88
2023/04/24 11:22:14;;;;;;;4.13;2.60;;;;;;;24.49;43.64;93551.31;4996938;28;20343;-88
2023/04/24 11:24:48;;;;;;;10.02;2.13;;;;;;;24.42;46.07;93545.91;4981831;28;20027;-89
2023/04/24 11:27:19;;;;;;;4.65;2.58;;;;;;;24.46;45.27;93551.28;4983474;28;20023;-89
2023/04/24 11:29:52;;;;;;;7.80;2.60;;;;;;;24.66;45.83;93549.81;4983026;28;20432;-89